Time;durP1;ratioP1;P1;durP2;ratioP2;P2;SDS_P1;SDS_P2;PMS_P1;PMS_P2;Temp;Humidity;BMP_temperature;BMP_pressure;BME280_temperature;BME280_humidity;BME280_pressure;Samples;Min_cycle;Max_cycle;Signal;HPM_P1;HPM_P2
2022/12/07 00:01:38;;;;;;;18.77;10.13;;;3.10;99.90;;;2.16;100.00;97798.59;5038081;28;20052;-72
2022/12/07 00:04:08;;;;;;;12.50;7.75;;;3.10;99.90;;;2.42;100.00;97795.03;5042412;28;21043;-71
2022/12/07 00:06:43;;;;;;;10.73;6.68;;;3.10;99.90;;;2.59;100.00;97788.06;5038711;28;20051;-72
2022/12/07 00:09:14;;;;;;;11.15;7.30;;;3.10;99.90;;;2.34;100.00;97784.81;5044146;28;20135;-71
2022/12/07 00:11:42;;;;;;;11.70;7.18;;;3.10;99.90;;;2.24;100.00;97781.47;5041197;28;20052;-71
2022/12/07 00:14:14;;;;;;;11.93;8.00;;;3.10;99.90;;;2.21;100.00;97793.44;5039301;28;20095;-72
2022/12/07 00:16:43;;;;;;;14.70;7.53;;;3.10;99.90;;;2.15;100.00;97790.94;5024695;28;20057;-71
2022/12/07 00:19:12;;;;;;;13.30;7.78;;;3.00;99.90;;;2.36;100.00;97785.66;5041733;28;20495;-71
2022/12/07 00:21:39;;;;;;;12.73;7.45;;;3.00;99.90;;;2.66;100.00;97782.03;5039759;28;20717;-71
2022/12/07 00:24:07;;;;;;;10.15;6.85;;;3.00;99.90;;;2.67;100.00;97782.91;5042115;28;20055;-72
2022/12/07 00:26:37;;;;;;;13.18;7.10;;;3.10;99.90;;;2.41;100.00;97780.50;5038581;28;20503;-71
2022/12/07 00:29:20;;;;;;;14.18;8.70;;;3.10;99.90;;;2.18;100.00;97775.53;5042889;28;20048;-71
2022/12/07 00:31:47;;;;;;;14.50;7.75;;;3.20;99.90;;;2.35;100.00;97767.75;5053504;28;20052;-72
2022/12/07 00:34:18;;;;;;;12.98;7.50;;;3.10;99.90;;;2.45;100.00;97761.72;5040382;28;20049;-71
2022/12/07 00:36:49;;;;;;;11.10;6.57;;;3.10;99.90;;;2.58;100.00;97765.88;5042227;28;20052;-71
2022/12/07 00:39:17;;;;;;;9.73;6.43;;;3.10;99.90;;;2.65;100.00;97764.13;5041743;28;20069;-71
2022/12/07 00:41:44;;;;;;;9.65;6.30;;;3.10;99.90;;;2.66;100.00;97765.81;5043357;28;20131;-72
2022/12/07 00:44:11;;;;;;;11.30;7.57;;;3.10;99.90;;;2.67;100.00;97777.78;5043686;28;20045;-71
2022/12/07 00:46:38;;;;;;;11.30;7.13;;;3.10;99.90;;;2.70;100.00;97783.72;5041743;28;20591;-71
2022/12/07 00:49:04;;;;;;;12.80;8.02;;;3.10;99.90;;;2.73;100.00;97772.59;5042802;28;20087;-71
2022/12/07 00:51:31;;;;;;;11.82;7.13;;;3.10;99.90;;;2.63;100.00;97778.66;5042328;28;20419;-71
2022/12/07 00:53:58;;;;;;;10.88;6.35;;;3.10;99.90;;;2.75;100.00;97772.56;5042077;28;20529;-71
2022/12/07 00:56:28;;;;;;;9.20;5.65;;;3.10;99.90;;;2.85;100.00;97761.38;5046015;28;20051;-71
2022/12/07 00:59:01;;;;;;;11.18;6.65;;;3.20;99.90;;;2.87;100.00;97749.38;5058193;28;20140;-71
2022/12/07 01:01:31;;;;;;;;;;;3.30;99.90;;;2.50;100.00;97747.16;5043280;28;20057;-71
2022/12/07 01:03:58;;;;;;;8.43;4.38;;;3.30;99.90;;;2.71;100.00;97741.84;5042869;28;20352;-71
2022/12/07 01:06:25;;;;;;;9.07;4.97;;;3.20;99.90;;;2.76;100.00;97746.06;5042968;28;20495;-71
2022/12/07 01:08:53;;;;;;;7.93;5.30;;;3.20;99.90;;;2.70;100.00;97736.72;5047949;28;20506;-71
2022/12/07 01:11:27;;;;;;;9.30;5.00;;;3.20;99.90;;;2.64;100.00;97726.53;5045410;28;20041;-71
2022/12/07 01:13:56;;;;;;;9.40;5.38;;;3.20;99.90;;;2.48;100.00;97729.22;5044087;28;20410;-71
2022/12/07 01:16:27;;;;;;;9.57;5.20;;;3.10;99.90;;;2.39;100.00;97728.44;5058933;28;20588;-70
2022/12/07 01:18:56;;;;;;;10.18;5.70;;;3.10;99.90;;;2.35;100.00;97731.88;5036118;28;20056;-71
2022/12/07 01:21:30;;;;;;;10.52;5.85;;;3.10;99.90;;;2.35;100.00;97727.63;5044490;28;20619;-71
2022/12/07 01:23:58;;;;;;;9.57;5.07;;;3.10;99.90;;;2.42;100.00;97726.72;5044784;28;20049;-71
2022/12/07 01:26:26;;;;;;;8.85;5.57;;;3.20;99.90;;;2.46;100.00;97727.53;5044092;28;20045;-71
2022/12/07 01:28:54;;;;;;;8.23;4.97;;;3.10;99.90;;;2.63;100.00;97723.13;5041342;28;20075;-71
2022/12/07 01:31:24;;;;;;;10.55;6.10;;;3.10;99.90;;;2.38;100.00;97730.16;5034334;28;20045;-71
2022/12/07 01:33:56;;;;;;;9.68;6.18;;;3.00;99.90;;;2.25;100.00;97734.50;5040093;28;20077;-71
2022/12/07 01:36:30;;;;;;;9.83;6.43;;;3.00;99.90;;;2.03;100.00;97745.75;5039744;28;20801;-71
2022/12/07 01:39:02;;;;;;;14.30;7.57;;;2.90;99.90;;;1.87;100.00;97750.09;5039775;28;20048;-71
2022/12/07 01:41:34;;;;;;;9.30;6.35;;;2.90;99.90;;;2.06;100.00;97758.56;5043227;28;20053;-71
2022/12/07 01:44:24;;;;;;;11.65;7.43;;;2.90;99.90;;;1.93;100.00;97760.31;5056824;28;20045;-71
2022/12/07 01:47:00;;;;;;;14.45;7.00;;;2.90;99.90;;;1.98;100.00;97765.41;5044629;28;20057;-71
2022/12/07 01:49:48;;;;;;;11.07;6.72;;;2.80;99.90;;;1.88;100.00;97765.47;5044184;28;20049;-71
2022/12/07 01:52:29;;;;;;;13.25;7.65;;;2.70;99.90;;;2.06;100.00;97771.34;5045365;28;20049;-71
2022/12/07 01:55:05;;;;;;;12.57;7.20;;;2.70;99.90;;;2.29;100.00;97771.22;5044695;28;20050;-70
2022/12/07 01:57:34;;;;;;;11.30;6.65;;;2.70;99.90;;;2.33;100.00;97766.91;5027696;28;20509;-71
2022/12/07 02:00:04;;;;;;;11.05;6.72;;;2.80;99.90;;;2.53;100.00;97759.06;5057217;28;20159;-71
2022/12/07 02:02:47;;;;;;;11.27;6.90;;;2.80;99.90;;;2.32;100.00;97762.66;5043140;28;20048;-71
2022/12/07 02:05:15;;;;;;;14.97;8.57;;;2.90;99.90;;;2.56;100.00;97753.94;5042240;28;20746;-71
2022/12/07 02:07:42;;;;;;;12.25;7.28;;;2.90;99.90;;;2.34;100.00;97750.69;5042684;28;20045;-71
2022/12/07 02:10:35;;;;;;;12.23;7.13;;;2.90;99.90;;;2.39;100.00;97754.91;5046931;28;20060;-71
2022/12/07 02:13:25;;;;;;;14.10;7.72;;;2.80;99.90;;;2.15;100.00;97758.50;5034957;28;20061;-71
2022/12/07 02:16:38;;;;;;;11.90;6.97;;;2.80;99.90;;;2.03;100.00;97750.88;5041490;28;20052;-70
2022/12/07 02:19:51;;;;;;;12.67;8.07;;;2.80;99.90;;;2.32;100.00;97753.25;5043267;28;20048;-71
2022/12/07 02:22:48;;;;;;;13.73;7.90;;;2.80;99.90;;;2.15;100.00;97744.84;5043076;28;20044;-71
2022/12/07 02:25:38;;;;;;;15.05;8.40;;;2.80;99.90;;;2.24;100.00;97748.19;5044676;28;20045;-71
2022/12/07 02:28:29;;;;;;;13.32;7.32;;;2.70;99.90;;;2.32;100.00;97739.59;5042353;28;20063;-71
2022/12/07 02:31:05;;;;;;;14.85;9.13;;;2.80;99.90;;;2.09;100.00;97738.03;5039721;28;20064;-71
2022/12/07 02:34:16;;;;;;;15.20;7.82;;;2.80;99.90;;;1.97;100.00;97744.09;5043067;28;20049;-71
2022/12/07 02:36:52;;;;;;;17.80;8.90;;;2.80;99.90;;;2.03;100.00;97743.19;5042288;28;20526;-71
2022/12/07 02:39:57;;;;;;;15.02;8.63;;;2.70;99.90;;;1.92;100.00;97745.00;5038261;28;20048;-71
2022/12/07 02:42:33;;;;;;;13.93;8.82;;;2.80;99.90;;;2.09;100.00;97740.59;5041441;28;20064;-71
2022/12/07 02:45:01;;;;;;;17.73;9.68;;;2.80;99.90;;;1.77;100.00;97740.78;5047444;28;20041;-71
2022/12/07 02:47:29;;;;;;;16.00;9.50;;;2.80;99.90;;;1.77;100.00;97748.47;5046472;28;20106;-71
2022/12/07 02:49:56;;;;;;;19.80;10.80;;;2.80;99.90;;;1.74;100.00;97745.94;5043120;28;20048;-71
2022/12/07 02:52:23;;;;;;;13.57;8.52;;;2.70;99.90;;;1.82;100.00;97747.56;5026837;28;20045;-71
2022/12/07 02:54:50;;;;;;;16.30;9.63;;;2.60;99.90;;;1.86;100.00;97750.97;5046211;28;20072;-71
2022/12/07 02:57:38;;;;;;;17.20;9.65;;;2.60;99.90;;;1.88;100.00;97750.09;5047201;28;20068;-71
2022/12/07 03:00:11;;;;;;;17.50;9.82;;;2.60;99.90;;;1.88;100.00;97746.69;5047122;28;20051;-71
2022/12/07 03:02:54;;;;;;;17.88;10.25;;;2.50;99.90;;;1.70;100.00;97751.91;5054657;28;20057;-71
2022/12/07 03:05:51;;;;;;;16.08;10.07;;;2.50;99.90;;;1.95;100.00;97752.63;5043849;28;20045;-71
2022/12/07 03:08:46;;;;;;;18.13;11.07;;;2.40;99.90;;;1.78;100.00;97757.81;5045854;28;20533;-71
2022/12/07 03:11:25;;;;;;;20.42;9.98;;;2.50;99.90;;;1.78;100.00;97760.38;5048664;28;20048;-72
2022/12/07 03:14:03;;;;;;;22.67;11.50;;;2.50;99.90;;;1.73;100.00;97762.13;5042663;28;20059;-71
2022/12/07 03:16:55;;;;;;;19.63;10.23;;;2.60;99.90;;;1.90;100.00;97762.06;5048201;28;20053;-71
2022/12/07 03:19:24;;;;;;;15.27;9.55;;;2.50;99.90;;;1.97;100.00;97754.31;5047400;28;20076;-71
2022/12/07 03:22:01;;;;;;;19.25;10.07;;;2.50;99.90;;;1.86;100.00;97751.81;5043275;28;20071;-72
2022/12/07 03:24:40;;;;;;;18.67;9.95;;;2.50;99.90;;;1.79;100.00;97746.75;5042958;28;20420;-71
2022/12/07 03:27:37;;;;;;;19.67;11.55;;;2.50;99.90;;;1.65;100.00;97745.09;5043201;28;20045;-71
2022/12/07 03:30:13;;;;;;;20.92;10.80;;;2.50;99.90;;;1.80;100.00;97743.31;5048150;28;20056;-72
2022/12/07 03:32:50;;;;;;;20.63;10.63;;;2.50;99.90;;;1.67;100.00;97739.97;5046573;28;20061;-71
2022/12/07 03:35:51;;;;;;;18.50;11.50;;;2.40;99.90;;;1.65;100.00;97744.25;5046127;28;20057;-71
2022/12/07 03:39:09;;;;;;;17.40;10.68;;;2.50;99.90;;;1.55;100.00;97743.44;5045092;28;20079;-71
2022/12/07 03:41:37;;;;;;;20.35;10.52;;;2.40;99.90;;;1.55;100.00;97753.69;5045490;28;20103;-71
2022/12/07 03:44:11;;;;;;;18.63;10.98;;;2.40;99.90;;;1.73;100.00;97759.56;5048443;28;20076;-71
2022/12/07 03:47:06;;;;;;;20.73;10.60;;;2.50;99.90;;;1.65;100.00;97767.28;5041186;28;20041;-71
2022/12/07 03:50:03;;;;;;;17.30;11.63;;;2.50;99.90;;;1.75;100.00;97756.13;5046875;28;20055;-71
2022/12/07 03:52:42;;;;;;;16.08;9.60;;;2.50;99.90;;;1.73;100.00;97768.09;5042066;28;20063;-71
2022/12/07 03:55:29;;;;;;;17.38;10.10;;;2.50;99.90;;;1.66;100.00;97753.63;5044909;28;20053;-72
2022/12/07 03:58:05;;;;;;;16.65;10.93;;;2.50;99.90;;;1.72;100.00;97765.56;5044761;28;20213;-71
2022/12/07 04:00:32;;;;;;;17.63;11.15;;;2.50;99.90;;;1.82;100.00;97765.47;5045332;28;20052;-71
2022/12/07 04:02:59;;;;;;;15.98;9.73;;;2.50;99.90;;;1.70;100.00;97770.66;5043997;28;20756;-71
2022/12/07 04:05:27;;;;;;;19.35;11.05;;;2.50;99.90;;;1.82;100.00;97770.59;5047316;28;20041;-71
2022/12/07 04:07:54;;;;;;;16.40;10.63;;;2.50;99.90;;;1.84;100.00;97773.16;5025564;28;20048;-71
2022/12/07 04:10:21;;;;;;;17.90;10.77;;;2.50;99.90;;;2.01;100.00;97773.09;5044226;28;20546;-72
2022/12/07 04:12:48;;;;;;;16.15;9.63;;;2.50;99.90;;;2.08;100.00;97773.03;5044314;28;20056;-72
2022/12/07 04:15:15;;;;;;;17.23;10.80;;;2.60;99.90;;;2.19;100.00;97770.44;5041291;28;20069;-72
2022/12/07 04:17:43;;;;;;;16.65;9.88;;;2.70;99.90;;;2.28;100.00;97766.94;5046864;28;20053;-71
2022/12/07 04:20:11;;;;;;;20.10;11.02;;;2.70;99.90;;;2.12;100.00;97765.34;5047535;28;20044;-71
2022/12/07 04:22:38;;;;;;;20.65;10.90;;;2.70;99.90;;;2.26;100.00;97761.84;5046086;28;20071;-71
2022/12/07 04:25:05;;;;;;;20.05;11.02;;;2.70;99.90;;;2.19;100.00;97764.44;5046093;28;20056;-71
2022/12/07 04:27:32;;;;;;;16.50;9.68;;;2.70;99.90;;;2.27;100.00;97760.13;5044335;28;20052;-71
2022/12/07 04:29:59;;;;;;;15.95;10.57;;;2.70;99.90;;;2.13;100.00;97756.81;5043652;28;20060;-71
2022/12/07 04:32:27;;;;;;;22.52;10.98;;;2.70;99.90;;;2.10;100.00;97752.56;5047252;28;20173;-71
2022/12/07 04:34:54;;;;;;;18.85;11.52;;;2.60;99.90;;;1.99;100.00;97747.50;5046165;28;20063;-71
2022/12/07 04:37:23;;;;;;;20.88;11.85;;;2.70;99.90;;;1.86;100.00;97753.53;5041869;28;20126;-71
2022/12/07 04:39:50;;;;;;;18.55;11.00;;;2.60;99.90;;;1.87;100.00;97755.22;5059156;28;20052;-71
2022/12/07 04:42:17;;;;;;;23.08;13.05;;;2.60;99.90;;;1.79;100.00;97754.44;5041426;28;20053;-72
2022/12/07 04:44:44;;;;;;;23.70;13.02;;;2.60;99.90;;;1.79;100.00;97764.66;5047993;28;20181;-72
2022/12/07 04:47:11;;;;;;;20.27;12.40;;;2.70;99.90;;;1.84;100.00;97760.38;5042473;28;20709;-71
2022/12/07 04:49:38;;;;;;;19.70;11.65;;;2.70;99.90;;;2.02;100.00;97754.31;5059589;28;20096;-72
2022/12/07 04:52:05;;;;;;;22.00;12.20;;;2.70;99.90;;;1.98;100.00;97750.06;5044110;28;20167;-71
2022/12/07 04:54:32;;;;;;;21.52;12.18;;;2.60;99.90;;;2.12;100.00;97745.69;5045801;28;20454;-71
2022/12/07 04:56:59;;;;;;;20.85;11.55;;;2.60;99.90;;;2.16;100.00;97749.94;5045414;28;20732;-74
2022/12/07 04:59:26;;;;;;;24.40;13.88;;;2.60;99.90;;;1.98;100.00;97755.16;5045967;28;20060;-74
2022/12/07 05:01:53;;;;;;;20.92;11.45;;;2.60;99.90;;;2.14;100.00;97761.06;5038763;28;20426;-71
2022/12/07 05:04:20;;;;;;;24.27;13.35;;;2.70;99.90;;;1.99;100.00;97749.22;5042109;28;20045;-73
2022/12/07 05:06:47;;;;;;;21.67;13.02;;;2.60;99.90;;;1.95;100.00;97758.59;5044320;28;20140;-73
2022/12/07 05:09:14;;;;;;;20.90;11.48;;;2.60;99.90;;;2.18;100.00;97755.06;5042854;28;20045;-73
2022/12/07 05:11:41;;;;;;;20.52;12.45;;;2.70;99.90;;;2.18;100.00;97760.19;5043092;28;20052;-73
2022/12/07 05:14:20;;;;;;;21.52;12.43;;;2.70;99.90;;;2.22;100.00;97757.59;5044226;28;20059;-73
2022/12/07 05:16:50;;;;;;;22.38;12.25;;;2.70;99.90;;;2.22;100.00;97760.16;5057944;28;20271;-72
2022/12/07 05:19:18;;;;;;;21.80;13.85;;;2.70;99.90;;;2.01;100.00;97752.63;5045736;28;20181;-73
2022/12/07 05:21:46;;;;;;;27.67;13.43;;;2.70;99.90;;;1.91;100.00;97756.06;5039470;28;20132;-73
2022/12/07 05:24:15;;;;;;;24.35;15.05;;;2.70;99.90;;;1.90;100.00;97768.03;5038002;28;20060;-73
2022/12/07 05:26:42;;;;;;;23.80;12.75;;;2.80;99.90;;;2.02;100.00;97767.09;5035525;28;20044;-73
2022/12/07 05:29:15;;;;;;;23.92;14.45;;;2.80;99.90;;;2.01;100.00;97770.53;5044783;28;20044;-73
2022/12/07 05:31:44;;;;;;;23.23;13.32;;;2.90;99.90;;;2.06;100.00;97768.78;5044106;28;20072;-73
2022/12/07 05:34:11;;;;;;;25.92;15.13;;;2.80;99.90;;;2.12;100.00;97766.16;5043539;28;20075;-72
2022/12/07 05:36:38;;;;;;;24.13;14.38;;;2.90;99.90;;;2.12;100.00;97763.63;5037485;28;20064;-72
2022/12/07 05:39:05;;;;;;;22.33;12.75;;;2.80;99.90;;;2.23;100.00;97758.44;5042713;28;20051;-72
2022/12/07 05:44:17;;;;;;;21.98;12.95;;;2.80;99.90;;;2.30;100.00;97757.53;5044097;28;20044;-73
2022/12/07 05:46:44;;;;;;;21.45;12.88;;;2.90;99.90;;;2.27;100.00;97760.97;5043039;28;20053;-72
2022/12/07 05:49:11;;;;;;;24.58;15.05;;;2.90;99.90;;;2.06;100.00;97754.28;5043130;28;20053;-73
2022/12/07 05:51:38;;;;;;;22.02;13.75;;;2.90;99.90;;;2.11;100.00;97755.97;5042337;28;20041;-72
2022/12/07 05:54:06;;;;;;;29.83;15.00;;;2.90;99.90;;;2.22;100.00;97756.75;5044276;28;20086;-71
2022/12/07 05:56:33;;;;;;;28.02;17.10;;;2.90;99.90;;;2.04;100.00;97760.25;5046248;28;20044;-71
2022/12/07 06:01:45;;;;;;;24.45;14.15;;;2.80;99.90;;;2.14;100.00;97761.06;5040280;28;20057;-71
2022/12/07 06:04:12;;;;;;;25.17;14.55;;;2.80;99.90;;;2.15;100.00;97755.94;5044027;28;20119;-71
2022/12/07 06:06:39;;;;;;;29.45;17.00;;;2.70;99.90;;;1.86;100.00;97762.06;5040550;28;20041;-71
2022/12/07 06:09:06;;;;;;;30.75;16.67;;;2.70;99.90;;;1.94;100.00;97762.03;5044227;28;20124;-71
2022/12/07 06:14:19;;;;;;;25.90;15.60;;;2.70;99.90;;;2.04;100.00;97765.38;5045697;28;20049;-74
2022/12/07 06:16:46;;;;;;;31.55;15.35;;;2.80;99.90;;;1.90;100.00;97762.06;5047933;28;20056;-73
2022/12/07 06:19:13;;;;;;;31.17;16.58;;;2.80;99.90;;;1.93;100.00;97764.59;5045312;28;20103;-74
2022/12/07 06:21:40;;;;;;;29.60;17.77;;;2.80;99.90;;;1.92;100.00;97766.31;5043784;28;20053;-74
2022/12/07 06:24:08;;;;;;;30.20;18.08;;;2.70;99.90;;;1.93;100.00;97777.38;5049606;28;20056;-73
2022/12/07 06:26:35;;;;;;;33.15;18.70;;;2.70;99.90;;;1.91;100.00;97771.44;5044862;28;20091;-71
2022/12/07 06:29:02;;;;;;;29.90;16.40;;;2.80;99.90;;;1.99;100.00;97777.38;5042068;28;20043;-73
2022/12/07 06:31:29;;;;;;;31.60;17.73;;;2.80;99.90;;;1.90;100.00;97773.13;5048475;28;20144;-71
2022/12/07 06:34:06;;;;;;;28.95;16.70;;;2.90;99.90;;;1.96;100.00;97775.69;5050615;28;20602;-73
2022/12/07 06:36:33;;;;;;;28.63;15.65;;;2.80;99.90;;;1.98;100.00;97780.78;5040306;28;20760;-73
2022/12/07 06:39:00;;;;;;;25.88;14.98;;;2.80;99.90;;;2.23;100.00;97782.31;5047348;28;20045;-73
2022/12/07 06:41:27;;;;;;;30.90;17.15;;;2.80;99.90;;;2.18;100.00;97773.81;5046738;28;20132;-70
2022/12/07 06:43:54;;;;;;;26.42;16.20;;;2.80;99.90;;;2.24;100.00;97771.25;5045247;28;20041;-73
2022/12/07 06:46:23;;;;;;;28.80;15.35;;;2.80;99.90;;;2.30;100.00;97776.34;5047069;28;20036;-73
2022/12/07 06:48:50;;;;;;;29.02;16.88;;;2.80;99.90;;;2.37;100.00;97772.00;5047815;28;20114;-73
2022/12/07 06:51:17;;;;;;;29.58;16.30;;;2.80;99.90;;;2.25;100.00;97764.41;5046612;28;20049;-73
2022/12/07 06:53:44;;;;;;;33.15;18.48;;;2.80;99.90;;;2.17;100.00;97766.19;5059450;28;20045;-73
2022/12/07 06:56:11;;;;;;;32.00;19.92;;;2.80;99.90;;;1.94;100.00;97758.59;5045040;28;20057;-73
2022/12/07 06:58:39;;;;;;;29.95;16.52;;;2.80;99.90;;;2.01;100.00;97767.97;5048105;28;20049;-73
2022/12/07 07:01:15;;;;;;;30.67;18.25;;;2.90;99.90;;;2.04;100.00;97775.63;5047006;28;20057;-71
2022/12/07 07:03:42;;;;;;;26.95;16.35;;;2.80;99.90;;;2.15;100.00;97775.56;5040125;28;20411;-71
2022/12/07 07:06:09;;;;;;;28.77;17.60;;;2.80;99.90;;;1.98;100.00;97775.66;5042593;28;20048;-71
2022/12/07 07:08:37;;;;;;;25.83;16.55;;;2.80;99.90;;;2.11;100.00;97769.59;5043706;28;20415;-71
2022/12/07 07:11:06;;;;;;;23.83;14.63;;;2.80;99.90;;;2.14;100.00;97776.41;5045684;28;20760;-71
2022/12/07 07:13:33;;;;;;;23.33;13.95;;;2.80;99.90;;;2.18;100.00;97778.94;5045840;28;20045;-71
2022/12/07 07:16:00;;;;;;;25.58;14.98;;;2.80;99.90;;;2.25;100.00;97777.19;5045493;28;20052;-72
2022/12/07 07:18:28;;;;;;;27.52;16.15;;;2.90;99.90;;;2.29;100.00;97786.56;5044590;28;20055;-74
2022/12/07 07:20:55;;;;;;;24.42;14.98;;;2.90;99.90;;;2.30;100.00;97784.00;5045338;28;20049;-74
2022/12/07 07:23:23;;;;;;;22.42;13.10;;;3.00;99.90;;;2.26;100.00;97787.44;5045343;28;20458;-73
2022/12/07 07:25:50;;;;;;;19.02;11.90;;;3.00;99.90;;;2.43;100.00;97782.19;5056851;28;20144;-74
2022/12/07 07:28:17;;;;;;;20.27;12.57;;;3.10;99.90;;;2.33;100.00;97787.38;5045756;28;20049;-73
2022/12/07 07:30:45;;;;;;;25.80;16.23;;;3.10;99.90;;;2.53;100.00;97779.56;5045406;28;20051;-73
2022/12/07 07:33:12;;;;;;;26.23;14.98;;;3.10;99.90;;;2.57;100.00;97784.66;5046647;28;20048;-71
2022/12/07 07:35:39;;;;;;;26.52;16.67;;;3.10;99.90;;;2.53;100.00;97793.22;5045745;28;20111;-74
2022/12/07 07:38:07;;;;;;;29.65;16.67;;;3.00;99.90;;;2.70;100.00;97791.41;5046086;28;20049;-74
2022/12/07 07:40:34;;;;;;;26.48;15.55;;;3.00;99.90;;;2.45;100.00;97790.72;5044534;28;20823;-74
2022/12/07 07:43:01;;;;;;;26.75;16.65;;;3.10;99.90;;;2.51;100.00;97787.28;5050152;28;20309;-73
2022/12/07 07:45:28;;;;;;;27.95;17.05;;;3.10;99.90;;;2.51;100.00;97792.41;5045750;28;20152;-71
2022/12/07 07:47:55;;;;;;;30.38;18.45;;;3.10;99.90;;;2.64;100.00;97793.16;5047913;28;20045;-73
2022/12/07 07:50:22;;;;;;;30.88;18.85;;;3.10;99.90;;;2.46;100.00;97786.44;5048607;28;20052;-74
2022/12/07 07:52:51;;;;;;;30.48;18.35;;;3.20;99.90;;;2.37;100.00;97787.34;5051813;28;20102;-74
2022/12/07 07:55:18;;;;;;;32.42;19.38;;;3.20;99.90;;;2.32;100.00;97786.53;5044762;28;20052;-72
2022/12/07 07:57:44;;;;;;;33.78;18.42;;;3.20;99.90;;;2.67;100.00;97788.03;5049961;28;20098;-71
2022/12/07 08:00:20;;;;;;;27.08;17.95;;;3.30;99.90;;;2.47;100.00;97788.16;5050188;28;20335;-70
2022/12/07 08:02:47;;;;;;;30.20;17.70;;;3.20;99.90;;;2.36;100.00;97788.22;5046374;28;20057;-73
2022/12/07 08:05:14;;;;;;;34.83;19.63;;;3.30;99.90;;;2.31;100.00;97795.09;5048540;28;20048;-71
2022/12/07 08:07:43;;;;;;;27.50;15.98;;;3.30;99.90;;;2.39;100.00;97801.00;5061322;28;20041;-73
2022/12/07 08:10:13;;;;;;;28.58;16.42;;;3.30;99.90;;;2.27;100.00;97803.66;5060528;28;20417;-71
2022/12/07 08:15:30;;;;;;;25.73;16.55;;;3.30;99.90;;;2.54;100.00;97810.31;5044587;28;20137;-72
2022/12/07 08:17:57;;;;;;;33.45;18.35;;;3.40;99.90;;;2.39;100.00;97820.66;5041983;28;20439;-72
2022/12/07 08:20:25;;;;;;;28.00;16.30;;;3.30;99.90;;;2.42;100.00;97820.66;5041953;28;20400;-73
2022/12/07 08:22:52;;;;;;;30.00;18.25;;;3.40;99.90;;;2.48;100.00;97821.44;5044881;28;20049;-73
2022/12/07 08:25:19;;;;;;;31.45;18.45;;;3.30;99.90;;;2.45;100.00;97825.75;5049502;28;20049;-73
2022/12/07 08:27:49;;;;;;;30.50;16.98;;;3.30;99.90;;;2.43;100.00;97825.75;5044059;28;20050;-72
2022/12/07 08:30:16;;;;;;;29.80;16.35;;;3.30;99.90;;;2.47;100.00;97819.75;5043842;28;20569;-72
2022/12/07 08:32:47;;;;;;;29.90;17.55;;;3.30;99.90;;;2.63;100.00;97815.38;5047176;28;20051;-73
2022/12/07 08:35:15;;;;;;;25.88;16.40;;;3.30;99.90;;;2.68;100.00;97815.34;5047806;28;20041;-73
2022/12/07 08:37:42;;;;;;;27.42;16.60;;;3.30;99.90;;;2.68;100.00;97821.31;5044785;28;20060;-73
2022/12/07 08:40:14;;;;;;;28.75;17.20;;;3.40;99.90;;;2.98;100.00;97815.97;5045791;28;20084;-73
2022/12/07 08:42:44;;;;;;;34.45;18.00;;;3.40;99.90;;;2.75;100.00;97816.16;5046862;28;20095;-73
2022/12/07 08:45:13;;;;;;;32.10;19.13;;;3.50;99.90;;;2.73;100.00;97823.84;5046503;28;20048;-73
2022/12/07 08:47:52;;;;;;;37.75;19.77;;;3.70;99.90;;;2.91;100.00;97815.16;5043523;28;20053;-73
2022/12/07 08:50:20;;;;;;;27.23;16.95;;;3.60;99.90;;;2.86;100.00;97815.19;5043694;28;20053;-73
2022/12/07 08:52:55;;;;;;;25.95;16.10;;;3.70;99.90;;;2.78;100.00;97811.84;5043542;28;20487;-74
2022/12/07 08:55:23;;;;;;;27.08;17.27;;;3.80;99.90;;;2.84;100.00;97814.38;5040830;28;20524;-73
2022/12/07 08:57:50;;;;;;;32.88;18.58;;;3.80;99.90;;;2.78;100.00;97811.00;5040612;28;20052;-73
2022/12/07 09:00:18;;;;;;;32.22;18.15;;;3.90;99.90;;;2.82;100.00;97817.81;5042900;28;20163;-73
2022/12/07 09:02:46;;;;;;;30.33;17.05;;;3.90;99.90;;;2.92;100.00;97804.91;5047441;28;20061;-73
2022/12/07 09:05:14;;;;;;;28.23;17.30;;;3.90;99.90;;;2.74;100.00;97802.50;5044830;28;20048;-73
2022/12/07 09:07:51;;;;;;;32.17;18.45;;;4.00;99.90;;;2.81;100.00;97804.16;5045956;28;20103;-72
2022/12/07 09:10:18;;;;;;;26.90;16.65;;;4.00;99.90;;;2.88;100.00;97805.78;5046292;28;20098;-73
2022/12/07 09:12:46;;;;;;;30.55;17.67;;;;;;;2.90;100.00;97809.19;5045019;28;20128;-73
2022/12/07 09:15:13;;;;;;;28.40;16.77;;;3.90;99.90;;;3.06;100.00;97812.47;5042367;28;20050;-73
2022/12/07 09:17:40;;;;;;;27.95;15.82;;;4.00;99.90;;;3.24;100.00;97805.44;5044862;28;20143;-73
2022/12/07 09:20:07;;;;;;;31.70;17.67;;;4.00;99.90;;;3.01;100.00;97808.22;5040562;28;20055;-73
2022/12/07 09:22:34;;;;;;;28.10;16.95;;;4.00;99.90;;;3.24;100.00;97800.31;5044033;28;20052;-73
2022/12/07 09:25:03;;;;;;;27.85;17.30;;;4.10;99.90;;;3.14;100.00;97812.41;5033499;28;20076;-73
2022/12/07 09:27:30;;;;;;;23.88;14.15;;;4.00;99.90;;;3.35;100.00;97801.94;5041305;28;20060;-74
2022/12/07 09:29:57;;;;;;;27.95;16.73;;;4.00;99.90;;;2.92;100.00;97804.91;5043812;28;20052;-73
2022/12/07 09:32:24;;;;;;;29.67;17.63;;;4.00;99.90;;;2.97;100.00;97801.47;5045565;28;20418;-73
2022/12/07 09:34:51;;;;;;;26.58;16.52;;;4.10;99.90;;;2.97;100.00;97797.16;5040553;28;20044;-73
2022/12/07 09:37:18;;;;;;;31.20;16.38;;;4.10;99.90;;;3.42;100.00;97797.59;5043011;28;20107;-73
2022/12/07 09:39:45;;;;;;;24.60;16.77;;;4.20;99.90;;;3.39;100.00;97807.03;5044876;28;20068;-74
2022/12/07 09:42:39;;;;;;;26.88;15.68;;;4.20;99.90;;;3.53;100.00;97803.44;5048117;28;20048;-73
2022/12/07 09:45:13;;;;;;;25.75;14.88;;;4.30;99.90;;;3.41;100.00;97793.31;5043150;28;20456;-73
2022/12/07 09:47:40;;;;;;;26.38;16.17;;;4.40;99.90;;;3.34;100.00;97782.25;5055684;28;20410;-73
2022/12/07 09:50:15;;;;;;;23.75;15.15;;;4.40;99.90;;;3.75;100.00;97782.69;5043103;28;20049;-73
2022/12/07 09:52:45;;;;;;;24.25;15.93;;;4.60;99.90;;;3.59;100.00;97779.44;5042319;28;20561;-72
2022/12/07 09:55:23;;;;;;;27.30;16.73;;;4.70;99.90;;;3.74;100.00;97774.13;5042636;28;20735;-72
2022/12/07 09:57:51;;;;;;;31.15;18.42;;;4.70;99.90;;;3.45;100.00;97769.31;5041180;28;20506;-72
2022/12/07 10:00:22;;;;;;;28.85;17.83;;;4.60;99.90;;;3.54;100.00;97764.09;5046549;28;20056;-72
2022/12/07 10:03:02;;;;;;;29.98;18.55;;;4.70;99.90;;;3.45;100.00;97763.34;5043977;28;20469;-73
2022/12/07 10:05:50;;;;;;;27.73;18.45;;;4.80;99.90;;;3.40;100.00;97759.97;5046079;28;20080;-73
2022/12/07 10:08:17;;;;;;;29.60;19.17;;;4.80;99.90;;;3.29;100.00;97770.38;5053216;28;20057;-73
2022/12/07 10:10:50;;;;;;;24.77;17.42;;;4.80;99.90;;;3.72;100.00;97765.59;5042476;28;20053;-73
2022/12/07 10:13:34;;;;;;;26.85;16.27;;;4.80;99.90;;;3.91;100.00;97758.50;5041377;28;20045;-73
2022/12/07 10:16:02;;;;;;;27.38;15.85;;;4.80;99.90;;;3.85;100.00;97750.88;5039948;28;20529;-73
2022/12/07 10:18:41;;;;;;;40.30;24.35;;;4.80;99.90;;;3.81;100.00;97756.06;5053293;28;20506;-73
2022/12/07 10:21:08;;;;;;;73.32;41.47;;;4.80;99.90;;;3.54;100.00;97758.13;5042501;28;20055;-72
2022/12/07 10:23:38;;;;;;;43.20;27.55;;;4.70;99.90;;;3.92;100.00;97749.94;5042972;28;20064;-73
2022/12/07 10:26:53;;;;;;;38.47;23.17;;;4.80;99.90;;;3.91;100.00;97747.38;5036334;28;20037;-73
2022/12/07 10:29:37;;;;;;;25.95;15.40;;;4.80;99.90;;;4.00;100.00;97749.81;5051708;28;20041;-72
2022/12/07 10:32:29;;;;;;;23.98;14.63;;;4.80;99.90;;;3.93;100.00;97743.06;5039542;28;20593;-72
2022/12/07 10:35:25;;;;;;;24.20;15.18;;;4.80;99.90;;;3.99;100.00;97735.25;5042538;28;20079;-73
2022/12/07 10:37:54;;;;;;;21.23;13.18;;;4.80;99.90;;;3.86;100.00;97733.75;5043345;28;20478;-73
2022/12/07 10:40:33;;;;;;;25.77;14.90;;;4.70;99.90;;;3.75;100.00;97729.59;5035158;28;20060;-73
2022/12/07 10:43:19;;;;;;;29.65;17.73;;;4.70;99.90;;;3.52;100.00;97727.31;5040354;28;20103;-73
2022/12/07 10:46:04;;;;;;;25.13;15.27;;;4.60;99.90;;;3.50;100.00;97723.09;5041919;28;20045;-73
2022/12/07 10:48:49;;;;;;;23.83;15.52;;;4.60;99.90;;;3.55;100.00;97718.75;5043102;28;20093;-72